sensor_id;sensor_type;location;lat;lon;timestamp;P1;durP1;ratioP1;P2;durP2;ratioP2
65737;SDS011;52478;51.844;6.582;2023-07-29T00:00:37;6.88;;;2.70;;
65737;SDS011;52478;51.844;6.582;2023-07-29T00:03:04;8.13;;;2.63;;
65737;SDS011;52478;51.844;6.582;2023-07-29T00:05:31;6.47;;;2.60;;
65737;SDS011;52478;51.844;6.582;2023-07-29T00:07:57;5.65;;;2.38;;
65737;SDS011;52478;51.844;6.582;2023-07-29T00:10:25;6.07;;;2.70;;
65737;SDS011;52478;51.844;6.582;2023-07-29T00:12:52;5.72;;;2.22;;
65737;SDS011;52478;51.844;6.582;2023-07-29T00:15:18;6.68;;;2.40;;
65737;SDS011;52478;51.844;6.582;2023-07-29T00:17:45;6.00;;;2.58;;
65737;SDS011;52478;51.844;6.582;2023-07-29T00:20:11;6.97;;;2.53;;
65737;SDS011;52478;51.844;6.582;2023-07-29T00:22:38;6.25;;;2.50;;
65737;SDS011;52478;51.844;6.582;2023-07-29T00:25:05;7.47;;;2.47;;
65737;SDS011;52478;51.844;6.582;2023-07-29T00:27:33;5.93;;;2.20;;
65737;SDS011;52478;51.844;6.582;2023-07-29T00:30:00;5.63;;;2.38;;
65737;SDS011;52478;51.844;6.582;2023-07-29T00:32:26;5.75;;;2.40;;
65737;SDS011;52478;51.844;6.582;2023-07-29T00:34:53;7.85;;;2.33;;
65737;SDS011;52478;51.844;6.582;2023-07-29T00:37:19;6.50;;;2.45;;
65737;SDS011;52478;51.844;6.582;2023-07-29T00:39:46;5.47;;;2.22;;
65737;SDS011;52478;51.844;6.582;2023-07-29T00:42:12;7.40;;;1.95;;
65737;SDS011;52478;51.844;6.582;2023-07-29T00:44:40;5.88;;;2.20;;
65737;SDS011;52478;51.844;6.582;2023-07-29T00:47:07;5.68;;;2.13;;
65737;SDS011;52478;51.844;6.582;2023-07-29T00:49:34;7.30;;;1.98;;
65737;SDS011;52478;51.844;6.582;2023-07-29T00:52:00;6.20;;;2.55;;
65737;SDS011;52478;51.844;6.582;2023-07-29T00:54:27;6.30;;;2.42;;
65737;SDS011;52478;51.844;6.582;2023-07-29T00:56:53;5.60;;;1.98;;
65737;SDS011;52478;51.844;6.582;2023-07-29T00:59:20;5.72;;;2.00;;
65737;SDS011;52478;51.844;6.582;2023-07-29T01:01:48;6.68;;;1.95;;
65737;SDS011;52478;51.844;6.582;2023-07-29T01:04:14;5.38;;;2.30;;
65737;SDS011;52478;51.844;6.582;2023-07-29T01:06:41;5.25;;;2.20;;
65737;SDS011;52478;51.844;6.582;2023-07-29T01:09:20;7.38;;;2.28;;
65737;SDS011;52478;51.844;6.582;2023-07-29T01:11:58;8.05;;;2.00;;
65737;SDS011;52478;51.844;6.582;2023-07-29T01:14:34;5.22;;;2.25;;
65737;SDS011;52478;51.844;6.582;2023-07-29T01:17:07;5.35;;;2.20;;
65737;SDS011;52478;51.844;6.582;2023-07-29T01:19:43;6.53;;;2.50;;
65737;SDS011;52478;51.844;6.582;2023-07-29T01:22:17;7.15;;;2.17;;
65737;SDS011;52478;51.844;6.582;2023-07-29T01:24:47;6.13;;;2.10;;
65737;SDS011;52478;51.844;6.582;2023-07-29T01:27:14;5.93;;;2.13;;
65737;SDS011;52478;51.844;6.582;2023-07-29T01:29:40;5.25;;;2.10;;
65737;SDS011;52478;51.844;6.582;2023-07-29T01:32:09;5.28;;;2.03;;
65737;SDS011;52478;51.844;6.582;2023-07-29T01:34:41;7.03;;;2.35;;
65737;SDS011;52478;51.844;6.582;2023-07-29T01:37:13;5.97;;;2.03;;
65737;SDS011;52478;51.844;6.582;2023-07-29T01:39:42;6.32;;;2.05;;
65737;SDS011;52478;51.844;6.582;2023-07-29T01:42:12;5.82;;;2.13;;
65737;SDS011;52478;51.844;6.582;2023-07-29T01:44:39;6.30;;;2.40;;
65737;SDS011;52478;51.844;6.582;2023-07-29T01:47:07;5.32;;;2.20;;
65737;SDS011;52478;51.844;6.582;2023-07-29T01:49:33;5.45;;;2.28;;
65737;SDS011;52478;51.844;6.582;2023-07-29T01:52:00;6.03;;;2.40;;
65737;SDS011;52478;51.844;6.582;2023-07-29T01:54:27;5.38;;;2.63;;
65737;SDS011;52478;51.844;6.582;2023-07-29T01:56:54;6.65;;;2.17;;
65737;SDS011;52478;51.844;6.582;2023-07-29T01:59:21;5.75;;;2.40;;
65737;SDS011;52478;51.844;6.582;2023-07-29T02:01:48;6.20;;;2.50;;
65737;SDS011;52478;51.844;6.582;2023-07-29T02:04:14;8.10;;;2.65;;
65737;SDS011;52478;51.844;6.582;2023-07-29T02:06:41;5.43;;;2.20;;
65737;SDS011;52478;51.844;6.582;2023-07-29T02:09:07;5.47;;;2.08;;
65737;SDS011;52478;51.844;6.582;2023-07-29T02:11:34;6.28;;;2.45;;
65737;SDS011;52478;51.844;6.582;2023-07-29T02:14:00;5.72;;;2.30;;
65737;SDS011;52478;51.844;6.582;2023-07-29T02:16:28;6.78;;;2.38;;
65737;SDS011;52478;51.844;6.582;2023-07-29T02:18:55;6.68;;;2.35;;
65737;SDS011;52478;51.844;6.582;2023-07-29T02:21:21;5.78;;;2.53;;
65737;SDS011;52478;51.844;6.582;2023-07-29T02:23:48;7.63;;;2.50;;
65737;SDS011;52478;51.844;6.582;2023-07-29T02:26:15;5.45;;;2.30;;
65737;SDS011;52478;51.844;6.582;2023-07-29T02:28:42;7.70;;;2.40;;
65737;SDS011;52478;51.844;6.582;2023-07-29T02:31:09;5.70;;;2.35;;
65737;SDS011;52478;51.844;6.582;2023-07-29T02:33:41;5.90;;;2.63;;
65737;SDS011;52478;51.844;6.582;2023-07-29T02:36:08;5.70;;;2.55;;
65737;SDS011;52478;51.844;6.582;2023-07-29T02:38:35;5.20;;;2.40;;
65737;SDS011;52478;51.844;6.582;2023-07-29T02:41:01;5.88;;;2.50;;
65737;SDS011;52478;51.844;6.582;2023-07-29T02:43:28;5.47;;;2.20;;
65737;SDS011;52478;51.844;6.582;2023-07-29T02:45:54;5.50;;;2.35;;
65737;SDS011;52478;51.844;6.582;2023-07-29T02:48:20;6.78;;;2.53;;
65737;SDS011;52478;51.844;6.582;2023-07-29T02:50:48;5.30;;;2.40;;
65737;SDS011;52478;51.844;6.582;2023-07-29T02:53:15;7.72;;;2.90;;
65737;SDS011;52478;51.844;6.582;2023-07-29T02:55:41;8.25;;;2.63;;
65737;SDS011;52478;51.844;6.582;2023-07-29T02:58:08;6.28;;;2.90;;
65737;SDS011;52478;51.844;6.582;2023-07-29T03:00:34;7.53;;;2.80;;
65737;SDS011;52478;51.844;6.582;2023-07-29T03:03:01;9.63;;;3.15;;
65737;SDS011;52478;51.844;6.582;2023-07-29T03:05:28;7.22;;;2.70;;
65737;SDS011;52478;51.844;6.582;2023-07-29T03:07:56;7.32;;;2.92;;
65737;SDS011;52478;51.844;6.582;2023-07-29T03:10:24;14.95;;;3.13;;
65737;SDS011;52478;51.844;6.582;2023-07-29T03:12:50;7.00;;;2.70;;
65737;SDS011;52478;51.844;6.582;2023-07-29T03:15:17;8.57;;;3.20;;
65737;SDS011;52478;51.844;6.582;2023-07-29T03:17:43;8.07;;;3.17;;
65737;SDS011;52478;51.844;6.582;2023-07-29T03:20:09;6.32;;;3.03;;
65737;SDS011;52478;51.844;6.582;2023-07-29T03:22:37;6.90;;;3.50;;
65737;SDS011;52478;51.844;6.582;2023-07-29T03:25:05;6.82;;;3.00;;
65737;SDS011;52478;51.844;6.582;2023-07-29T03:27:32;8.70;;;3.42;;
65737;SDS011;52478;51.844;6.582;2023-07-29T03:29:58;6.60;;;3.45;;
65737;SDS011;52478;51.844;6.582;2023-07-29T03:32:25;6.43;;;3.25;;
65737;SDS011;52478;51.844;6.582;2023-07-29T03:34:52;6.45;;;3.30;;
65737;SDS011;52478;51.844;6.582;2023-07-29T03:37:18;7.43;;;3.55;;
65737;SDS011;52478;51.844;6.582;2023-07-29T03:39:46;8.25;;;3.30;;
65737;SDS011;52478;51.844;6.582;2023-07-29T03:42:14;6.70;;;3.33;;
65737;SDS011;52478;51.844;6.582;2023-07-29T03:44:40;8.70;;;4.00;;
65737;SDS011;52478;51.844;6.582;2023-07-29T03:47:07;8.20;;;3.90;;
65737;SDS011;52478;51.844;6.582;2023-07-29T03:49:33;10.32;;;4.05;;
65737;SDS011;52478;51.844;6.582;2023-07-29T03:52:00;9.32;;;5.10;;
65737;SDS011;52478;51.844;6.582;2023-07-29T03:54:26;10.48;;;5.18;;
65737;SDS011;52478;51.844;6.582;2023-07-29T03:56:53;9.68;;;5.43;;
65737;SDS011;52478;51.844;6.582;2023-07-29T03:59:21;10.30;;;5.15;;
65737;SDS011;52478;51.844;6.582;2023-07-29T04:01:47;9.60;;;5.28;;
65737;SDS011;52478;51.844;6.582;2023-07-29T04:04:14;9.20;;;5.70;;
65737;SDS011;52478;51.844;6.582;2023-07-29T04:06:40;8.60;;;5.28;;
65737;SDS011;52478;51.844;6.582;2023-07-29T04:09:07;8.80;;;5.30;;
65737;SDS011;52478;51.844;6.582;2023-07-29T04:11:34;11.57;;;5.65;;
65737;SDS011;52478;51.844;6.582;2023-07-29T04:14:00;12.38;;;6.35;;
65737;SDS011;52478;51.844;6.582;2023-07-29T04:16:28;10.13;;;5.30;;
65737;SDS011;52478;51.844;6.582;2023-07-29T04:18:55;10.02;;;5.38;;
65737;SDS011;52478;51.844;6.582;2023-07-29T04:21:21;9.45;;;5.40;;
65737;SDS011;52478;51.844;6.582;2023-07-29T04:23:48;10.18;;;5.50;;
65737;SDS011;52478;51.844;6.582;2023-07-29T04:26:14;10.93;;;5.25;;
65737;SDS011;52478;51.844;6.582;2023-07-29T04:28:41;9.43;;;5.75;;
65737;SDS011;52478;51.844;6.582;2023-07-29T04:31:08;11.13;;;4.90;;
65737;SDS011;52478;51.844;6.582;2023-07-29T04:33:35;9.27;;;4.90;;
65737;SDS011;52478;51.844;6.582;2023-07-29T04:36:02;8.18;;;4.55;;
65737;SDS011;52478;51.844;6.582;2023-07-29T04:38:30;9.32;;;4.13;;
65737;SDS011;52478;51.844;6.582;2023-07-29T04:40:58;9.85;;;4.53;;
65737;SDS011;52478;51.844;6.582;2023-07-29T04:43:26;9.13;;;4.70;;
65737;SDS011;52478;51.844;6.582;2023-07-29T04:45:53;7.60;;;4.40;;
65737;SDS011;52478;51.844;6.582;2023-07-29T04:48:20;8.80;;;4.00;;
65737;SDS011;52478;51.844;6.582;2023-07-29T04:50:47;8.55;;;4.70;;
65737;SDS011;52478;51.844;6.582;2023-07-29T04:53:14;9.73;;;4.53;;
65737;SDS011;52478;51.844;6.582;2023-07-29T04:55:41;8.05;;;4.13;;
65737;SDS011;52478;51.844;6.582;2023-07-29T04:58:08;8.55;;;4.15;;
65737;SDS011;52478;51.844;6.582;2023-07-29T05:00:34;8.75;;;4.32;;
65737;SDS011;52478;51.844;6.582;2023-07-29T05:03:01;8.10;;;3.58;;
65737;SDS011;52478;51.844;6.582;2023-07-29T05:05:28;7.97;;;4.03;;
65737;SDS011;52478;51.844;6.582;2023-07-29T05:07:55;6.75;;;3.65;;
65737;SDS011;52478;51.844;6.582;2023-07-29T05:10:22;7.80;;;3.72;;
65737;SDS011;52478;51.844;6.582;2023-07-29T05:12:49;7.05;;;3.20;;
65737;SDS011;52478;51.844;6.582;2023-07-29T05:15:15;7.40;;;3.17;;
65737;SDS011;52478;51.844;6.582;2023-07-29T05:17:43;7.88;;;3.38;;
65737;SDS011;52478;51.844;6.582;2023-07-29T05:20:10;6.90;;;3.20;;
65737;SDS011;52478;51.844;6.582;2023-07-29T05:22:37;7.18;;;3.15;;
65737;SDS011;52478;51.844;6.582;2023-07-29T05:25:06;6.50;;;3.00;;
65737;SDS011;52478;51.844;6.582;2023-07-29T05:27:33;7.38;;;3.25;;
65737;SDS011;52478;51.844;6.582;2023-07-29T05:29:59;8.10;;;3.30;;
65737;SDS011;52478;51.844;6.582;2023-07-29T05:32:26;6.05;;;2.92;;
65737;SDS011;52478;51.844;6.582;2023-07-29T05:34:52;6.20;;;2.92;;
65737;SDS011;52478;51.844;6.582;2023-07-29T05:37:19;6.35;;;2.75;;
65737;SDS011;52478;51.844;6.582;2023-07-29T05:39:45;6.57;;;2.50;;
65737;SDS011;52478;51.844;6.582;2023-07-29T05:42:13;6.45;;;2.70;;
65737;SDS011;52478;51.844;6.582;2023-07-29T05:44:40;7.15;;;2.75;;
65737;SDS011;52478;51.844;6.582;2023-07-29T05:47:07;6.22;;;2.50;;
65737;SDS011;52478;51.844;6.582;2023-07-29T05:49:33;7.95;;;3.13;;
65737;SDS011;52478;51.844;6.582;2023-07-29T05:51:59;6.07;;;2.55;;
65737;SDS011;52478;51.844;6.582;2023-07-29T05:54:26;6.20;;;2.47;;
65737;SDS011;52478;51.844;6.582;2023-07-29T05:56:52;6.95;;;2.80;;
65737;SDS011;52478;51.844;6.582;2023-07-29T05:59:20;8.05;;;3.17;;
65737;SDS011;52478;51.844;6.582;2023-07-29T06:01:47;9.23;;;2.78;;
65737;SDS011;52478;51.844;6.582;2023-07-29T06:04:13;6.28;;;2.80;;
65737;SDS011;52478;51.844;6.582;2023-07-29T06:06:40;7.25;;;3.10;;
65737;SDS011;52478;51.844;6.582;2023-07-29T06:09:06;7.20;;;3.13;;
65737;SDS011;52478;51.844;6.582;2023-07-29T06:11:33;6.93;;;3.08;;
65737;SDS011;52478;51.844;6.582;2023-07-29T06:13:59;7.53;;;2.85;;
65737;SDS011;52478;51.844;6.582;2023-07-29T06:16:27;6.43;;;3.10;;
65737;SDS011;52478;51.844;6.582;2023-07-29T06:18:54;6.80;;;3.13;;
65737;SDS011;52478;51.844;6.582;2023-07-29T06:21:20;8.90;;;3.50;;
65737;SDS011;52478;51.844;6.582;2023-07-29T06:23:47;8.35;;;3.35;;
65737;SDS011;52478;51.844;6.582;2023-07-29T06:26:13;6.90;;;2.92;;
65737;SDS011;52478;51.844;6.582;2023-07-29T06:33:34;7.88;;;3.35;;
65737;SDS011;52478;51.844;6.582;2023-07-29T06:36:01;7.60;;;3.20;;
65737;SDS011;52478;51.844;6.582;2023-07-29T06:38:28;7.53;;;3.30;;
65737;SDS011;52478;51.844;6.582;2023-07-29T06:40:54;8.07;;;3.10;;
65737;SDS011;52478;51.844;6.582;2023-07-29T06:43:21;7.72;;;3.17;;
65737;SDS011;52478;51.844;6.582;2023-07-29T06:45:47;7.90;;;3.30;;
65737;SDS011;52478;51.844;6.582;2023-07-29T06:48:14;6.80;;;2.80;;
65737;SDS011;52478;51.844;6.582;2023-07-29T06:50:42;6.97;;;2.72;;
65737;SDS011;52478;51.844;6.582;2023-07-29T06:53:08;7.25;;;3.25;;
65737;SDS011;52478;51.844;6.582;2023-07-29T06:55:35;6.72;;;3.00;;
65737;SDS011;52478;51.844;6.582;2023-07-29T06:58:02;8.18;;;3.00;;
65737;SDS011;52478;51.844;6.582;2023-07-29T07:00:28;8.02;;;3.10;;
65737;SDS011;52478;51.844;6.582;2023-07-29T07:02:55;6.72;;;3.13;;
65737;SDS011;52478;51.844;6.582;2023-07-29T07:05:21;6.60;;;2.75;;
65737;SDS011;52478;51.844;6.582;2023-07-29T07:07:49;6.80;;;2.75;;
65737;SDS011;52478;51.844;6.582;2023-07-29T07:10:15;6.60;;;2.88;;
65737;SDS011;52478;51.844;6.582;2023-07-29T07:12:42;7.82;;;2.65;;
65737;SDS011;52478;51.844;6.582;2023-07-29T07:15:09;7.25;;;2.90;;
65737;SDS011;52478;51.844;6.582;2023-07-29T07:17:35;6.68;;;2.60;;
65737;SDS011;52478;51.844;6.582;2023-07-29T07:20:02;7.35;;;2.78;;
65737;SDS011;52478;51.844;6.582;2023-07-29T07:22:29;6.53;;;2.55;;
65737;SDS011;52478;51.844;6.582;2023-07-29T07:24:57;6.75;;;2.75;;
65737;SDS011;52478;51.844;6.582;2023-07-29T07:27:23;8.43;;;2.83;;
65737;SDS011;52478;51.844;6.582;2023-07-29T07:29:50;7.88;;;2.83;;
65737;SDS011;52478;51.844;6.582;2023-07-29T07:32:16;6.60;;;2.60;;
65737;SDS011;52478;51.844;6.582;2023-07-29T07:34:43;7.93;;;3.10;;
65737;SDS011;52478;51.844;6.582;2023-07-29T07:37:09;6.90;;;2.78;;
65737;SDS011;52478;51.844;6.582;2023-07-29T07:39:36;7.05;;;2.60;;
65737;SDS011;52478;51.844;6.582;2023-07-29T07:42:04;8.10;;;2.63;;
65737;SDS011;52478;51.844;6.582;2023-07-29T07:44:31;7.07;;;2.50;;
65737;SDS011;52478;51.844;6.582;2023-07-29T07:46:58;8.60;;;2.78;;
65737;SDS011;52478;51.844;6.582;2023-07-29T07:49:24;7.07;;;2.90;;
65737;SDS011;52478;51.844;6.582;2023-07-29T07:51:51;6.95;;;2.60;;
65737;SDS011;52478;51.844;6.582;2023-07-29T07:54:17;7.68;;;2.70;;
65737;SDS011;52478;51.844;6.582;2023-07-29T07:56:44;7.72;;;2.78;;
65737;SDS011;52478;51.844;6.582;2023-07-29T07:59:11;5.55;;;2.10;;
65737;SDS011;52478;51.844;6.582;2023-07-29T08:01:38;7.32;;;2.72;;
65737;SDS011;52478;51.844;6.582;2023-07-29T08:04:05;6.68;;;2.65;;
65737;SDS011;52478;51.844;6.582;2023-07-29T08:06:32;6.85;;;2.60;;
65737;SDS011;52478;51.844;6.582;2023-07-29T08:09:00;6.07;;;2.50;;
65737;SDS011;52478;51.844;6.582;2023-07-29T08:11:27;6.53;;;2.60;;
65737;SDS011;52478;51.844;6.582;2023-07-29T08:13:53;5.70;;;2.33;;
65737;SDS011;52478;51.844;6.582;2023-07-29T08:16:21;6.40;;;2.70;;
65737;SDS011;52478;51.844;6.582;2023-07-29T08:18:48;7.22;;;2.53;;
65737;SDS011;52478;51.844;6.582;2023-07-29T08:21:14;7.68;;;2.95;;
65737;SDS011;52478;51.844;6.582;2023-07-29T08:23:41;6.75;;;2.53;;
65737;SDS011;52478;51.844;6.582;2023-07-29T08:26:07;8.05;;;2.55;;
65737;SDS011;52478;51.844;6.582;2023-07-29T08:28:34;6.43;;;2.42;;
65737;SDS011;52478;51.844;6.582;2023-07-29T08:31:02;7.00;;;2.35;;
65737;SDS011;52478;51.844;6.582;2023-07-29T08:33:30;6.68;;;2.20;;
65737;SDS011;52478;51.844;6.582;2023-07-29T08:35:58;7.70;;;1.98;;
65737;SDS011;52478;51.844;6.582;2023-07-29T08:38:25;10.75;;;2.00;;
65737;SDS011;52478;51.844;6.582;2023-07-29T08:40:52;5.80;;;1.80;;
65737;SDS011;52478;51.844;6.582;2023-07-29T08:43:23;5.07;;;1.70;;
65737;SDS011;52478;51.844;6.582;2023-07-29T08:45:54;6.03;;;2.05;;
65737;SDS011;52478;51.844;6.582;2023-07-29T08:48:23;6.25;;;1.90;;
65737;SDS011;52478;51.844;6.582;2023-07-29T08:50:58;4.65;;;1.55;;
65737;SDS011;52478;51.844;6.582;2023-07-29T08:53:27;6.60;;;1.70;;
65737;SDS011;52478;51.844;6.582;2023-07-29T08:55:54;6.15;;;1.73;;
65737;SDS011;52478;51.844;6.582;2023-07-29T08:58:21;5.15;;;1.60;;
65737;SDS011;52478;51.844;6.582;2023-07-29T09:00:49;5.25;;;1.70;;
65737;SDS011;52478;51.844;6.582;2023-07-29T09:05:44;5.07;;;1.80;;
65737;SDS011;52478;51.844;6.582;2023-07-29T09:08:11;6.55;;;1.80;;
65737;SDS011;52478;51.844;6.582;2023-07-29T09:10:38;6.68;;;1.90;;
65737;SDS011;52478;51.844;6.582;2023-07-29T09:13:04;6.18;;;1.73;;
65737;SDS011;52478;51.844;6.582;2023-07-29T09:15:32;6.03;;;1.60;;
65737;SDS011;52478;51.844;6.582;2023-07-29T09:17:59;4.20;;;1.50;;
65737;SDS011;52478;51.844;6.582;2023-07-29T09:20:35;4.60;;;1.75;;
65737;SDS011;52478;51.844;6.582;2023-07-29T09:23:03;5.38;;;1.83;;
65737;SDS011;52478;51.844;6.582;2023-07-29T09:25:33;5.22;;;1.60;;
65737;SDS011;52478;51.844;6.582;2023-07-29T09:28:00;5.55;;;2.00;;
65737;SDS011;52478;51.844;6.582;2023-07-29T09:30:27;5.22;;;1.60;;
65737;SDS011;52478;51.844;6.582;2023-07-29T09:35:21;4.75;;;1.70;;
65737;SDS011;52478;51.844;6.582;2023-07-29T09:37:48;6.20;;;1.80;;
65737;SDS011;52478;51.844;6.582;2023-07-29T09:40:17;5.78;;;1.95;;
65737;SDS011;52478;51.844;6.582;2023-07-29T09:42:50;6.97;;;2.30;;
65737;SDS011;52478;51.844;6.582;2023-07-29T09:47:47;6.78;;;2.15;;
65737;SDS011;52478;51.844;6.582;2023-07-29T09:50:14;12.88;;;3.08;;
65737;SDS011;52478;51.844;6.582;2023-07-29T09:55:09;7.95;;;2.40;;
65737;SDS011;52478;51.844;6.582;2023-07-29T09:57:37;10.20;;;2.70;;
65737;SDS011;52478;51.844;6.582;2023-07-29T10:00:05;8.60;;;2.30;;
65737;SDS011;52478;51.844;6.582;2023-07-29T10:02:36;9.57;;;2.53;;
65737;SDS011;52478;51.844;6.582;2023-07-29T10:05:03;8.30;;;2.40;;
65737;SDS011;52478;51.844;6.582;2023-07-29T10:07:31;7.03;;;2.78;;
65737;SDS011;52478;51.844;6.582;2023-07-29T10:09:59;9.48;;;2.58;;
65737;SDS011;52478;51.844;6.582;2023-07-29T10:12:27;9.55;;;2.72;;
65737;SDS011;52478;51.844;6.582;2023-07-29T10:14:56;8.55;;;2.58;;
65737;SDS011;52478;51.844;6.582;2023-07-29T10:17:25;9.55;;;2.83;;
65737;SDS011;52478;51.844;6.582;2023-07-29T10:19:53;9.55;;;2.28;;
65737;SDS011;52478;51.844;6.582;2023-07-29T10:22:21;6.95;;;2.28;;
65737;SDS011;52478;51.844;6.582;2023-07-29T10:24:51;9.13;;;2.60;;
65737;SDS011;52478;51.844;6.582;2023-07-29T10:27:20;7.93;;;2.50;;
65737;SDS011;52478;51.844;6.582;2023-07-29T10:29:48;7.65;;;2.72;;
65737;SDS011;52478;51.844;6.582;2023-07-29T10:32:17;7.00;;;2.35;;
65737;SDS011;52478;51.844;6.582;2023-07-29T10:34:45;6.85;;;2.28;;
65737;SDS011;52478;51.844;6.582;2023-07-29T10:37:12;8.52;;;2.50;;
65737;SDS011;52478;51.844;6.582;2023-07-29T10:39:38;5.90;;;2.22;;
65737;SDS011;52478;51.844;6.582;2023-07-29T10:42:06;7.65;;;2.00;;
65737;SDS011;52478;51.844;6.582;2023-07-29T10:47:14;7.22;;;2.60;;
65737;SDS011;52478;51.844;6.582;2023-07-29T10:49:43;6.65;;;2.30;;
65737;SDS011;52478;51.844;6.582;2023-07-29T10:52:12;11.13;;;2.33;;
65737;SDS011;52478;51.844;6.582;2023-07-29T10:54:42;6.32;;;2.20;;
65737;SDS011;52478;51.844;6.582;2023-07-29T10:57:12;5.60;;;2.00;;
65737;SDS011;52478;51.844;6.582;2023-07-29T10:59:39;6.38;;;2.50;;
65737;SDS011;52478;51.844;6.582;2023-07-29T11:02:12;6.78;;;2.47;;
65737;SDS011;52478;51.844;6.582;2023-07-29T11:04:49;9.15;;;2.63;;
65737;SDS011;52478;51.844;6.582;2023-07-29T11:07:23;8.68;;;2.83;;
65737;SDS011;52478;51.844;6.582;2023-07-29T11:09:57;7.82;;;2.50;;
65737;SDS011;52478;51.844;6.582;2023-07-29T11:12:34;9.93;;;3.40;;
65737;SDS011;52478;51.844;6.582;2023-07-29T11:15:11;7.35;;;2.70;;
65737;SDS011;52478;51.844;6.582;2023-07-29T11:17:39;7.43;;;3.08;;
65737;SDS011;52478;51.844;6.582;2023-07-29T11:20:08;10.77;;;3.00;;
65737;SDS011;52478;51.844;6.582;2023-07-29T11:22:37;7.47;;;2.80;;
65737;SDS011;52478;51.844;6.582;2023-07-29T11:25:04;10.50;;;3.25;;
65737;SDS011;52478;51.844;6.582;2023-07-29T11:27:32;8.23;;;2.80;;
65737;SDS011;52478;51.844;6.582;2023-07-29T11:29:59;8.32;;;2.97;;
65737;SDS011;52478;51.844;6.582;2023-07-29T11:32:27;9.27;;;2.80;;
65737;SDS011;52478;51.844;6.582;2023-07-29T11:34:53;9.27;;;2.42;;
65737;SDS011;52478;51.844;6.582;2023-07-29T11:37:21;8.05;;;2.42;;
65737;SDS011;52478;51.844;6.582;2023-07-29T11:39:48;8.20;;;2.92;;
65737;SDS011;52478;51.844;6.582;2023-07-29T11:42:14;8.07;;;2.60;;
65737;SDS011;52478;51.844;6.582;2023-07-29T11:44:41;8.15;;;2.55;;
65737;SDS011;52478;51.844;6.582;2023-07-29T11:47:08;7.32;;;2.50;;
65737;SDS011;52478;51.844;6.582;2023-07-29T11:49:35;6.38;;;2.28;;
65737;SDS011;52478;51.844;6.582;2023-07-29T11:52:02;7.10;;;2.35;;
65737;SDS011;52478;51.844;6.582;2023-07-29T11:54:31;7.55;;;2.50;;
65737;SDS011;52478;51.844;6.582;2023-07-29T11:56:57;7.20;;;2.15;;
65737;SDS011;52478;51.844;6.582;2023-07-29T11:59:24;5.93;;;2.53;;
65737;SDS011;52478;51.844;6.582;2023-07-29T12:01:50;7.40;;;2.42;;
65737;SDS011;52478;51.844;6.582;2023-07-29T12:04:18;7.68;;;2.30;;
65737;SDS011;52478;51.844;6.582;2023-07-29T12:06:44;6.75;;;2.55;;
65737;SDS011;52478;51.844;6.582;2023-07-29T12:09:11;6.85;;;2.10;;
65737;SDS011;52478;51.844;6.582;2023-07-29T12:11:39;7.28;;;2.22;;
65737;SDS011;52478;51.844;6.582;2023-07-29T12:14:07;6.80;;;2.40;;
65737;SDS011;52478;51.844;6.582;2023-07-29T12:16:40;6.25;;;2.13;;
65737;SDS011;52478;51.844;6.582;2023-07-29T12:19:06;7.20;;;2.17;;
65737;SDS011;52478;51.844;6.582;2023-07-29T12:21:33;7.25;;;2.08;;
65737;SDS011;52478;51.844;6.582;2023-07-29T12:24:02;6.63;;;2.10;;
65737;SDS011;52478;51.844;6.582;2023-07-29T12:26:28;5.65;;;2.10;;
65737;SDS011;52478;51.844;6.582;2023-07-29T12:31:28;6.65;;;2.22;;
65737;SDS011;52478;51.844;6.582;2023-07-29T12:33:57;6.45;;;1.85;;
65737;SDS011;52478;51.844;6.582;2023-07-29T12:36:27;5.82;;;2.17;;
65737;SDS011;52478;51.844;6.582;2023-07-29T12:38:53;6.32;;;2.03;;
65737;SDS011;52478;51.844;6.582;2023-07-29T12:41:25;5.85;;;1.95;;
65737;SDS011;52478;51.844;6.582;2023-07-29T12:43:51;6.10;;;1.98;;
65737;SDS011;52478;51.844;6.582;2023-07-29T12:46:19;5.45;;;1.83;;
65737;SDS011;52478;51.844;6.582;2023-07-29T12:48:46;5.47;;;1.83;;
65737;SDS011;52478;51.844;6.582;2023-07-29T12:51:12;7.28;;;1.83;;
65737;SDS011;52478;51.844;6.582;2023-07-29T12:53:39;5.03;;;1.73;;
65737;SDS011;52478;51.844;6.582;2023-07-29T12:56:05;7.00;;;2.13;;
65737;SDS011;52478;51.844;6.582;2023-07-29T12:58:32;7.13;;;2.20;;
65737;SDS011;52478;51.844;6.582;2023-07-29T13:00:58;5.95;;;1.80;;
65737;SDS011;52478;51.844;6.582;2023-07-29T13:03:26;5.50;;;1.70;;
65737;SDS011;52478;51.844;6.582;2023-07-29T13:05:54;5.15;;;1.80;;
65737;SDS011;52478;51.844;6.582;2023-07-29T13:08:20;5.15;;;1.90;;
65737;SDS011;52478;51.844;6.582;2023-07-29T13:10:48;4.55;;;1.70;;
65737;SDS011;52478;51.844;6.582;2023-07-29T13:13:15;5.38;;;1.80;;
65737;SDS011;52478;51.844;6.582;2023-07-29T13:15:41;5.68;;;2.00;;
65737;SDS011;52478;51.844;6.582;2023-07-29T13:18:08;6.00;;;1.80;;
65737;SDS011;52478;51.844;6.582;2023-07-29T13:20:35;5.18;;;1.83;;
65737;SDS011;52478;51.844;6.582;2023-07-29T13:23:02;4.70;;;1.63;;
65737;SDS011;52478;51.844;6.582;2023-07-29T13:25:29;5.20;;;1.80;;
65737;SDS011;52478;51.844;6.582;2023-07-29T13:27:56;5.55;;;1.70;;
65737;SDS011;52478;51.844;6.582;2023-07-29T13:30:22;5.05;;;1.80;;
65737;SDS011;52478;51.844;6.582;2023-07-29T13:32:49;5.20;;;1.70;;
65737;SDS011;52478;51.844;6.582;2023-07-29T13:35:15;5.10;;;1.73;;
65737;SDS011;52478;51.844;6.582;2023-07-29T13:37:43;4.85;;;1.60;;
65737;SDS011;52478;51.844;6.582;2023-07-29T13:40:10;4.95;;;1.65;;
65737;SDS011;52478;51.844;6.582;2023-07-29T13:42:36;5.65;;;1.90;;
65737;SDS011;52478;51.844;6.582;2023-07-29T13:45:03;5.18;;;1.70;;
65737;SDS011;52478;51.844;6.582;2023-07-29T13:47:30;4.80;;;1.70;;
65737;SDS011;52478;51.844;6.582;2023-07-29T13:49:57;5.82;;;1.95;;
65737;SDS011;52478;51.844;6.582;2023-07-29T13:52:23;5.22;;;1.83;;
65737;SDS011;52478;51.844;6.582;2023-07-29T13:54:51;5.20;;;1.60;;
65737;SDS011;52478;51.844;6.582;2023-07-29T13:57:18;5.90;;;1.90;;
65737;SDS011;52478;51.844;6.582;2023-07-29T13:59:44;5.40;;;1.80;;
65737;SDS011;52478;51.844;6.582;2023-07-29T14:02:11;4.55;;;1.52;;
65737;SDS011;52478;51.844;6.582;2023-07-29T14:04:39;5.85;;;2.00;;
65737;SDS011;52478;51.844;6.582;2023-07-29T14:07:05;4.95;;;1.85;;
65737;SDS011;52478;51.844;6.582;2023-07-29T14:09:32;4.88;;;1.75;;
65737;SDS011;52478;51.844;6.582;2023-07-29T14:12:00;5.05;;;1.90;;
65737;SDS011;52478;51.844;6.582;2023-07-29T14:14:26;5.85;;;1.75;;
65737;SDS011;52478;51.844;6.582;2023-07-29T14:16:53;5.10;;;1.55;;
65737;SDS011;52478;51.844;6.582;2023-07-29T14:19:19;5.20;;;1.67;;
65737;SDS011;52478;51.844;6.582;2023-07-29T14:21:46;4.85;;;1.60;;
65737;SDS011;52478;51.844;6.582;2023-07-29T14:24:12;5.25;;;1.60;;
65737;SDS011;52478;51.844;6.582;2023-07-29T14:26:40;3.90;;;1.40;;
65737;SDS011;52478;51.844;6.582;2023-07-29T14:31:36;4.80;;;1.70;;
65737;SDS011;52478;51.844;6.582;2023-07-29T14:34:03;4.60;;;1.40;;
65737;SDS011;52478;51.844;6.582;2023-07-29T14:36:29;5.72;;;2.15;;
65737;SDS011;52478;51.844;6.582;2023-07-29T14:38:56;4.65;;;1.63;;
65737;SDS011;52478;51.844;6.582;2023-07-29T14:41:22;4.60;;;1.70;;
65737;SDS011;52478;51.844;6.582;2023-07-29T14:43:49;5.20;;;1.60;;
65737;SDS011;52478;51.844;6.582;2023-07-29T14:46:16;4.90;;;1.58;;
65737;SDS011;52478;51.844;6.582;2023-07-29T14:48:43;5.18;;;1.65;;
65737;SDS011;52478;51.844;6.582;2023-07-29T14:53:36;5.00;;;1.50;;
65737;SDS011;52478;51.844;6.582;2023-07-29T14:56:03;5.47;;;1.63;;
65737;SDS011;52478;51.844;6.582;2023-07-29T14:58:30;5.97;;;1.65;;
65737;SDS011;52478;51.844;6.582;2023-07-29T15:00:56;5.18;;;1.60;;
65737;SDS011;52478;51.844;6.582;2023-07-29T15:03:24;4.15;;;1.38;;
65737;SDS011;52478;51.844;6.582;2023-07-29T15:05:51;4.75;;;1.55;;
65737;SDS011;52478;51.844;6.582;2023-07-29T15:08:18;5.15;;;1.75;;
65737;SDS011;52478;51.844;6.582;2023-07-29T15:10:44;4.82;;;1.65;;
65737;SDS011;52478;51.844;6.582;2023-07-29T15:13:11;4.53;;;1.50;;